Aeroporto :
LOGIN :

Iscrizione | Disclaimer

   EN    FR    IT 

 










Sommario :    VFR   VFR Marginale   IFR   IFR Intensivo   IFR Molto Intensivo
Visibilità : 
Base nubi : 
>= 8 km
>= 3000ft
5 / 8 km
1000 / 3000 ft
1500m / 5 km
500 / 1000 ft
800 / 1500m
200 / 500 ft
< 800m
< 200 ft
Simboli :   Temporali  Nebbia  Neve Forte  Precipitazioni Forti  Vento > 20 kt
SIGMETs :   Varie  Temporali  Ghiacco  Turbolenza  Onda orograficha  Ceneri Vulcaniche






- Altitudine del aeroporto : 597 ft
- Codice IATA : PDV


LBPD - Plovdiv

ULTIMO METAR :
  • 250800Z AUTO 28005KT 9999 NCD 03/00 Q1029 NOSIG

METARs OBSOLETI :
  • 250730Z AUTO 28003KT 240V300 7000 NCD 02/00 Q1029 NOSIG
  • 250700Z AUTO 29004KT 5000 BR NCD M00/M01 Q1029 NOSIG
  • 250630Z AUTO 28005KT 5000 BR NCD M01/M02 Q1029 NOSIG
  • 250600Z AUTO 29005KT 5000 BR NCD M02/M03 Q1029 TEMPO 2000 BR
  • 250530Z AUTO 28002KT 3100 BR NCD M02/M03 Q1029 TEMPO 3000 BR

TAF TAF LBPD
Valido dal 25 a 06 ore il 26 a 06 ore UTC


250500Z 2506/2606 VRB04KT CAVOK
TEMPO 2506/2507 3000 BR SCT015
BECMG 2522/2524 5000 BR SCT020
PROB30
TEMPO 2602/2606 0600 FZFG SCT005



MetMap, La meteo Aeronautica in un colpo d'occhio ! - Copyright ORBIFLY Dicembre 2007 - Disclaimer

ORBIFLY MET'MAP TEAM :

Programmazione e sviluppo : Alexandra Zaïnal
Concezione : Baudouin d'Aumeries
Aiuto per la programmazione : Marc-Olivier Méhu
Supporto tecnico e logistico : Manuel Goepfert
Aiuto per la traduzione : Arnaldo La Scala

Contatto : metmap@orbifly.com




FONTI E CREDITI :

   NOAA